logo
Rechercher aéroport 
image banner adimage banner adimage banner ad
image banner ad

MMEPM - El Palmar

Situé à San Buenaventura, Mexico

ICAO - , IATA -

Données fournies par Airmate  

Information générale

Coordonnées: N28°0'46" W102°10'43"
Élévation : 1420 feet MSL.
Variation magnétique : 5° East
Voir autres Aéroports à Coahuila

Données opérationnelles

Special qualification required
Heure actuelle UTC:
Heure actuelle locale:
Météo à : - ( 0 km )
METAR: PAKU 241145Z 20009KT 10SM R06/P6000FT BKN048 14/12 A2995
Voir NOTAMs / SUP AIP / TFR affectant cet aéroport [VIEW]
Fréquences de communication: [VIEW]

Pistes:

Identifiant RWYQFULongueur (ft)Largeur (ft)SurfaceLDA (ft)
33338°493431ASPH
15158°493431ASPH

Coordonnées de l'aéroport

Adresse: San Buenaventura Mexico

Vue satellite de MMEPM